sensor_id;sensor_type;location;lat;lon;timestamp;P1;durP1;ratioP1;P2;durP2;ratioP2
22219;SDS011;11279;48.364;10.904;2023-04-07T00:00:17;14.13;;;8.33;;
22219;SDS011;11279;48.364;10.904;2023-04-07T00:01:17;15.37;;;8.50;;
22219;SDS011;11279;48.364;10.904;2023-04-07T00:02:18;13.83;;;8.33;;
22219;SDS011;11279;48.364;10.904;2023-04-07T00:03:18;14.43;;;7.70;;
22219;SDS011;11279;48.364;10.904;2023-04-07T00:04:19;16.83;;;8.93;;
22219;SDS011;11279;48.364;10.904;2023-04-07T00:05:20;13.70;;;7.97;;
22219;SDS011;11279;48.364;10.904;2023-04-07T00:06:20;13.43;;;8.23;;
22219;SDS011;11279;48.364;10.904;2023-04-07T00:07:21;13.47;;;7.57;;
22219;SDS011;11279;48.364;10.904;2023-04-07T00:08:21;15.73;;;7.90;;
22219;SDS011;11279;48.364;10.904;2023-04-07T00:09:22;14.83;;;7.27;;
22219;SDS011;11279;48.364;10.904;2023-04-07T00:10:23;13.63;;;7.93;;
22219;SDS011;11279;48.364;10.904;2023-04-07T00:11:24;12.07;;;7.85;;
22219;SDS011;11279;48.364;10.904;2023-04-07T00:12:24;14.57;;;7.80;;
22219;SDS011;11279;48.364;10.904;2023-04-07T00:13:25;17.40;;;7.87;;
22219;SDS011;11279;48.364;10.904;2023-04-07T00:14:26;11.23;;;6.33;;
22219;SDS011;11279;48.364;10.904;2023-04-07T00:15:26;14.03;;;6.80;;
22219;SDS011;11279;48.364;10.904;2023-04-07T00:16:27;12.80;;;7.00;;
22219;SDS011;11279;48.364;10.904;2023-04-07T00:17:27;10.07;;;5.60;;
22219;SDS011;11279;48.364;10.904;2023-04-07T00:18:27;12.80;;;6.17;;
22219;SDS011;11279;48.364;10.904;2023-04-07T00:19:28;11.73;;;6.47;;
22219;SDS011;11279;48.364;10.904;2023-04-07T00:20:28;13.00;;;5.83;;
22219;SDS011;11279;48.364;10.904;2023-04-07T00:21:29;10.37;;;5.57;;
22219;SDS011;11279;48.364;10.904;2023-04-07T00:22:30;10.20;;;5.97;;
22219;SDS011;11279;48.364;10.904;2023-04-07T00:23:30;12.70;;;6.57;;
22219;SDS011;11279;48.364;10.904;2023-04-07T00:24:30;11.50;;;6.13;;
22219;SDS011;11279;48.364;10.904;2023-04-07T00:25:31;10.30;;;5.90;;
22219;SDS011;11279;48.364;10.904;2023-04-07T00:26:31;8.87;;;4.73;;
22219;SDS011;11279;48.364;10.904;2023-04-07T00:27:32;9.13;;;5.57;;
22219;SDS011;11279;48.364;10.904;2023-04-07T00:28:32;13.07;;;5.63;;
22219;SDS011;11279;48.364;10.904;2023-04-07T00:29:33;9.30;;;5.30;;
22219;SDS011;11279;48.364;10.904;2023-04-07T00:30:33;12.80;;;5.33;;
22219;SDS011;11279;48.364;10.904;2023-04-07T00:31:33;9.50;;;5.47;;
22219;SDS011;11279;48.364;10.904;2023-04-07T00:32:34;9.70;;;5.20;;
22219;SDS011;11279;48.364;10.904;2023-04-07T00:33:35;8.50;;;4.50;;
22219;SDS011;11279;48.364;10.904;2023-04-07T00:34:35;8.63;;;3.93;;
22219;SDS011;11279;48.364;10.904;2023-04-07T00:35:35;8.10;;;4.27;;
22219;SDS011;11279;48.364;10.904;2023-04-07T00:36:36;9.63;;;4.60;;
22219;SDS011;11279;48.364;10.904;2023-04-07T00:37:36;7.87;;;4.40;;
22219;SDS011;11279;48.364;10.904;2023-04-07T00:38:37;7.87;;;4.57;;
22219;SDS011;11279;48.364;10.904;2023-04-07T00:39:37;9.67;;;5.00;;
22219;SDS011;11279;48.364;10.904;2023-04-07T00:40:38;9.13;;;4.90;;
22219;SDS011;11279;48.364;10.904;2023-04-07T00:41:38;7.97;;;4.53;;
22219;SDS011;11279;48.364;10.904;2023-04-07T00:42:38;9.80;;;4.60;;
22219;SDS011;11279;48.364;10.904;2023-04-07T00:43:39;6.90;;;3.87;;
22219;SDS011;11279;48.364;10.904;2023-04-07T00:44:39;8.20;;;4.37;;
22219;SDS011;11279;48.364;10.904;2023-04-07T00:45:40;8.53;;;4.40;;
22219;SDS011;11279;48.364;10.904;2023-04-07T00:46:40;7.70;;;4.07;;
22219;SDS011;11279;48.364;10.904;2023-04-07T00:47:41;8.07;;;3.87;;
22219;SDS011;11279;48.364;10.904;2023-04-07T00:48:41;6.70;;;3.97;;
22219;SDS011;11279;48.364;10.904;2023-04-07T00:49:42;7.83;;;3.77;;
22219;SDS011;11279;48.364;10.904;2023-04-07T00:50:44;7.70;;;3.50;;
22219;SDS011;11279;48.364;10.904;2023-04-07T00:51:44;5.80;;;3.45;;
22219;SDS011;11279;48.364;10.904;2023-04-07T00:52:45;6.57;;;3.33;;
22219;SDS011;11279;48.364;10.904;2023-04-07T00:53:46;6.63;;;3.33;;
22219;SDS011;11279;48.364;10.904;2023-04-07T00:54:47;7.03;;;3.33;;
22219;SDS011;11279;48.364;10.904;2023-04-07T00:55:47;5.13;;;2.80;;
22219;SDS011;11279;48.364;10.904;2023-04-07T00:56:48;3.70;;;2.77;;
22219;SDS011;11279;48.364;10.904;2023-04-07T00:57:49;8.90;;;3.08;;
22219;SDS011;11279;48.364;10.904;2023-04-07T00:58:50;6.43;;;3.17;;
22219;SDS011;11279;48.364;10.904;2023-04-07T00:59:51;6.00;;;3.30;;
22219;SDS011;11279;48.364;10.904;2023-04-07T01:00:58;4.93;;;2.83;;
22219;SDS011;11279;48.364;10.904;2023-04-07T01:02:12;5.03;;;3.00;;
22219;SDS011;11279;48.364;10.904;2023-04-07T01:03:27;6.03;;;3.17;;
22219;SDS011;11279;48.364;10.904;2023-04-07T01:04:32;8.35;;;3.35;;
22219;SDS011;11279;48.364;10.904;2023-04-07T01:05:47;3.92;;;2.60;;
22219;SDS011;11279;48.364;10.904;2023-04-07T01:06:52;5.72;;;2.83;;
22219;SDS011;11279;48.364;10.904;2023-04-07T01:08:16;4.20;;;2.72;;
22219;SDS011;11279;48.364;10.904;2023-04-07T01:09:41;5.82;;;2.80;;
22219;SDS011;11279;48.364;10.904;2023-04-07T01:10:58;4.38;;;2.38;;
22219;SDS011;11279;48.364;10.904;2023-04-07T01:13:22;5.05;;;3.10;;
22219;SDS011;11279;48.364;10.904;2023-04-07T01:14:27;4.60;;;2.75;;
22219;SDS011;11279;48.364;10.904;2023-04-07T01:15:30;5.07;;;2.83;;
22219;SDS011;11279;48.364;10.904;2023-04-07T01:16:34;4.80;;;2.80;;
22219;SDS011;11279;48.364;10.904;2023-04-07T01:17:41;5.68;;;2.83;;
22219;SDS011;11279;48.364;10.904;2023-04-07T01:18:42;5.10;;;2.80;;
22219;SDS011;11279;48.364;10.904;2023-04-07T01:19:46;5.93;;;3.00;;
22219;SDS011;11279;48.364;10.904;2023-04-07T01:20:50;5.20;;;2.50;;
22219;SDS011;11279;48.364;10.904;2023-04-07T01:21:52;7.72;;;3.28;;
22219;SDS011;11279;48.364;10.904;2023-04-07T01:22:56;5.83;;;2.90;;
22219;SDS011;11279;48.364;10.904;2023-04-07T01:26:35;8.07;;;3.22;;
22219;SDS011;11279;48.364;10.904;2023-04-07T01:30:31;5.22;;;3.20;;
22219;SDS011;11279;48.364;10.904;2023-04-07T01:31:33;6.38;;;3.42;;
22219;SDS011;11279;48.364;10.904;2023-04-07T01:32:36;5.65;;;3.30;;
22219;SDS011;11279;48.364;10.904;2023-04-07T01:33:39;4.90;;;3.13;;
22219;SDS011;11279;48.364;10.904;2023-04-07T01:34:43;6.38;;;3.67;;
22219;SDS011;11279;48.364;10.904;2023-04-07T01:35:44;7.55;;;3.65;;
22219;SDS011;11279;48.364;10.904;2023-04-07T01:36:45;6.53;;;3.40;;
22219;SDS011;11279;48.364;10.904;2023-04-07T01:37:46;5.70;;;3.40;;
22219;SDS011;11279;48.364;10.904;2023-04-07T01:38:48;7.75;;;3.80;;
22219;SDS011;11279;48.364;10.904;2023-04-07T01:39:50;5.90;;;3.30;;
22219;SDS011;11279;48.364;10.904;2023-04-07T01:40:50;10.23;;;3.47;;
22219;SDS011;11279;48.364;10.904;2023-04-07T01:41:52;6.45;;;3.60;;
22219;SDS011;11279;48.364;10.904;2023-04-07T01:42:54;7.03;;;4.00;;
22219;SDS011;11279;48.364;10.904;2023-04-07T01:43:55;6.97;;;3.80;;
22219;SDS011;11279;48.364;10.904;2023-04-07T01:44:56;7.03;;;4.60;;
22219;SDS011;11279;48.364;10.904;2023-04-07T01:45:57;7.05;;;3.97;;
22219;SDS011;11279;48.364;10.904;2023-04-07T01:46:58;6.60;;;3.90;;
22219;SDS011;11279;48.364;10.904;2023-04-07T01:48:00;7.45;;;4.03;;
22219;SDS011;11279;48.364;10.904;2023-04-07T01:49:00;7.33;;;4.17;;
22219;SDS011;11279;48.364;10.904;2023-04-07T01:50:02;6.43;;;3.75;;
22219;SDS011;11279;48.364;10.904;2023-04-07T01:51:06;7.15;;;4.18;;
22219;SDS011;11279;48.364;10.904;2023-04-07T01:52:07;7.13;;;4.20;;
22219;SDS011;11279;48.364;10.904;2023-04-07T01:53:08;6.10;;;3.47;;
22219;SDS011;11279;48.364;10.904;2023-04-07T01:54:08;6.30;;;4.07;;
22219;SDS011;11279;48.364;10.904;2023-04-07T01:55:09;6.17;;;3.80;;
22219;SDS011;11279;48.364;10.904;2023-04-07T01:56:10;7.28;;;4.18;;
22219;SDS011;11279;48.364;10.904;2023-04-07T01:57:10;8.27;;;4.27;;
22219;SDS011;11279;48.364;10.904;2023-04-07T01:58:11;6.53;;;3.70;;
22219;SDS011;11279;48.364;10.904;2023-04-07T01:59:11;7.97;;;4.73;;
22219;SDS011;11279;48.364;10.904;2023-04-07T02:00:12;7.07;;;4.30;;
22219;SDS011;11279;48.364;10.904;2023-04-07T02:01:13;9.00;;;4.75;;
22219;SDS011;11279;48.364;10.904;2023-04-07T02:02:13;7.23;;;4.20;;
22219;SDS011;11279;48.364;10.904;2023-04-07T02:03:16;7.93;;;4.47;;
22219;SDS011;11279;48.364;10.904;2023-04-07T02:04:36;9.18;;;4.55;;
22219;SDS011;11279;48.364;10.904;2023-04-07T02:05:40;6.68;;;4.05;;
22219;SDS011;11279;48.364;10.904;2023-04-07T02:06:42;8.47;;;4.33;;
22219;SDS011;11279;48.364;10.904;2023-04-07T02:07:48;8.07;;;4.45;;
22219;SDS011;11279;48.364;10.904;2023-04-07T02:08:54;9.35;;;4.82;;
22219;SDS011;11279;48.364;10.904;2023-04-07T02:09:57;7.75;;;4.45;;
22219;SDS011;11279;48.364;10.904;2023-04-07T02:10:59;8.52;;;4.68;;
22219;SDS011;11279;48.364;10.904;2023-04-07T02:12:00;8.68;;;4.78;;
22219;SDS011;11279;48.364;10.904;2023-04-07T02:13:02;9.10;;;4.63;;
22219;SDS011;11279;48.364;10.904;2023-04-07T02:14:04;8.27;;;4.25;;
22219;SDS011;11279;48.364;10.904;2023-04-07T02:15:07;8.27;;;4.72;;
22219;SDS011;11279;48.364;10.904;2023-04-07T02:16:08;8.52;;;4.40;;
22219;SDS011;11279;48.364;10.904;2023-04-07T02:17:09;8.47;;;4.73;;
22219;SDS011;11279;48.364;10.904;2023-04-07T02:18:11;12.10;;;5.57;;
22219;SDS011;11279;48.364;10.904;2023-04-07T02:19:12;8.80;;;5.20;;
22219;SDS011;11279;48.364;10.904;2023-04-07T02:20:13;9.23;;;4.90;;
22219;SDS011;11279;48.364;10.904;2023-04-07T02:21:14;10.85;;;5.68;;
22219;SDS011;11279;48.364;10.904;2023-04-07T02:22:16;9.75;;;5.53;;
22219;SDS011;11279;48.364;10.904;2023-04-07T02:23:16;8.80;;;5.03;;
22219;SDS011;11279;48.364;10.904;2023-04-07T02:24:19;10.30;;;5.67;;
22219;SDS011;11279;48.364;10.904;2023-04-07T02:25:23;8.93;;;5.22;;
22219;SDS011;11279;48.364;10.904;2023-04-07T02:26:25;8.95;;;5.18;;
22219;SDS011;11279;48.364;10.904;2023-04-07T02:27:25;11.43;;;5.47;;
22219;SDS011;11279;48.364;10.904;2023-04-07T02:28:26;9.37;;;5.13;;
22219;SDS011;11279;48.364;10.904;2023-04-07T02:29:26;11.60;;;5.23;;
22219;SDS011;11279;48.364;10.904;2023-04-07T02:30:27;10.00;;;5.20;;
22219;SDS011;11279;48.364;10.904;2023-04-07T02:31:27;10.07;;;6.00;;
22219;SDS011;11279;48.364;10.904;2023-04-07T02:32:28;11.13;;;5.63;;
22219;SDS011;11279;48.364;10.904;2023-04-07T02:33:28;10.60;;;6.43;;
22219;SDS011;11279;48.364;10.904;2023-04-07T02:34:29;13.13;;;5.93;;
22219;SDS011;11279;48.364;10.904;2023-04-07T02:35:29;11.40;;;5.73;;
22219;SDS011;11279;48.364;10.904;2023-04-07T02:36:30;9.73;;;5.87;;
22219;SDS011;11279;48.364;10.904;2023-04-07T02:37:30;10.17;;;5.97;;
22219;SDS011;11279;48.364;10.904;2023-04-07T02:38:31;11.93;;;6.73;;
22219;SDS011;11279;48.364;10.904;2023-04-07T02:39:31;10.37;;;5.77;;
22219;SDS011;11279;48.364;10.904;2023-04-07T02:40:32;10.00;;;6.23;;
22219;SDS011;11279;48.364;10.904;2023-04-07T02:41:32;10.10;;;6.23;;
22219;SDS011;11279;48.364;10.904;2023-04-07T02:42:33;11.33;;;5.60;;
22219;SDS011;11279;48.364;10.904;2023-04-07T02:43:33;10.67;;;6.17;;
22219;SDS011;11279;48.364;10.904;2023-04-07T02:44:34;10.03;;;5.83;;
22219;SDS011;11279;48.364;10.904;2023-04-07T02:45:34;12.73;;;6.37;;
22219;SDS011;11279;48.364;10.904;2023-04-07T02:46:35;11.27;;;6.40;;
22219;SDS011;11279;48.364;10.904;2023-04-07T02:47:36;10.00;;;5.80;;
22219;SDS011;11279;48.364;10.904;2023-04-07T02:48:37;13.00;;;5.78;;
22219;SDS011;11279;48.364;10.904;2023-04-07T02:49:37;11.10;;;6.47;;
22219;SDS011;11279;48.364;10.904;2023-04-07T02:50:37;11.23;;;6.03;;
22219;SDS011;11279;48.364;10.904;2023-04-07T02:51:38;11.47;;;6.33;;
22219;SDS011;11279;48.364;10.904;2023-04-07T02:52:38;11.23;;;6.23;;
22219;SDS011;11279;48.364;10.904;2023-04-07T02:53:39;12.07;;;6.43;;
22219;SDS011;11279;48.364;10.904;2023-04-07T02:54:39;11.07;;;6.13;;
22219;SDS011;11279;48.364;10.904;2023-04-07T02:55:40;11.53;;;5.80;;
22219;SDS011;11279;48.364;10.904;2023-04-07T02:56:40;10.83;;;5.60;;
22219;SDS011;11279;48.364;10.904;2023-04-07T02:57:41;10.57;;;5.67;;
22219;SDS011;11279;48.364;10.904;2023-04-07T02:58:41;10.20;;;6.13;;
22219;SDS011;11279;48.364;10.904;2023-04-07T02:59:42;11.87;;;6.37;;
22219;SDS011;11279;48.364;10.904;2023-04-07T03:00:42;11.27;;;6.10;;
22219;SDS011;11279;48.364;10.904;2023-04-07T03:01:42;10.17;;;6.20;;
22219;SDS011;11279;48.364;10.904;2023-04-07T03:02:43;11.40;;;6.47;;
22219;SDS011;11279;48.364;10.904;2023-04-07T03:03:44;13.03;;;6.27;;
22219;SDS011;11279;48.364;10.904;2023-04-07T03:04:46;10.02;;;6.00;;
22219;SDS011;11279;48.364;10.904;2023-04-07T03:05:47;11.47;;;6.33;;
22219;SDS011;11279;48.364;10.904;2023-04-07T03:06:47;9.97;;;6.03;;
22219;SDS011;11279;48.364;10.904;2023-04-07T03:07:47;12.63;;;6.97;;
22219;SDS011;11279;48.364;10.904;2023-04-07T03:08:48;10.83;;;5.90;;
22219;SDS011;11279;48.364;10.904;2023-04-07T03:09:48;12.40;;;6.33;;
22219;SDS011;11279;48.364;10.904;2023-04-07T03:10:49;10.60;;;6.23;;
22219;SDS011;11279;48.364;10.904;2023-04-07T03:11:49;10.23;;;6.33;;
22219;SDS011;11279;48.364;10.904;2023-04-07T03:12:50;11.70;;;6.00;;
22219;SDS011;11279;48.364;10.904;2023-04-07T03:13:51;10.67;;;6.50;;
22219;SDS011;11279;48.364;10.904;2023-04-07T03:14:51;10.77;;;6.07;;
22219;SDS011;11279;48.364;10.904;2023-04-07T03:15:51;10.40;;;5.90;;
22219;SDS011;11279;48.364;10.904;2023-04-07T03:16:52;12.33;;;6.90;;
22219;SDS011;11279;48.364;10.904;2023-04-07T03:17:52;11.83;;;6.70;;
22219;SDS011;11279;48.364;10.904;2023-04-07T03:18:53;10.63;;;6.53;;
22219;SDS011;11279;48.364;10.904;2023-04-07T03:19:53;10.07;;;5.57;;
22219;SDS011;11279;48.364;10.904;2023-04-07T03:20:54;11.70;;;6.70;;
22219;SDS011;11279;48.364;10.904;2023-04-07T03:21:55;12.63;;;6.10;;
22219;SDS011;11279;48.364;10.904;2023-04-07T03:22:55;13.40;;;6.47;;
22219;SDS011;11279;48.364;10.904;2023-04-07T03:23:56;12.13;;;6.33;;
22219;SDS011;11279;48.364;10.904;2023-04-07T03:24:56;11.17;;;6.33;;
22219;SDS011;11279;48.364;10.904;2023-04-07T03:25:57;11.43;;;6.50;;
22219;SDS011;11279;48.364;10.904;2023-04-07T03:26:57;10.47;;;6.50;;
22219;SDS011;11279;48.364;10.904;2023-04-07T03:27:58;11.93;;;6.47;;
22219;SDS011;11279;48.364;10.904;2023-04-07T03:28:58;13.13;;;7.43;;
22219;SDS011;11279;48.364;10.904;2023-04-07T03:29:59;12.50;;;7.30;;
22219;SDS011;11279;48.364;10.904;2023-04-07T03:30:59;11.33;;;6.03;;
22219;SDS011;11279;48.364;10.904;2023-04-07T03:31:59;11.67;;;7.20;;
22219;SDS011;11279;48.364;10.904;2023-04-07T03:33:00;13.03;;;6.80;;
22219;SDS011;11279;48.364;10.904;2023-04-07T03:34:00;12.47;;;6.73;;
22219;SDS011;11279;48.364;10.904;2023-04-07T03:35:01;14.73;;;7.30;;
22219;SDS011;11279;48.364;10.904;2023-04-07T03:36:01;14.20;;;7.83;;
22219;SDS011;11279;48.364;10.904;2023-04-07T03:37:02;10.07;;;6.53;;
22219;SDS011;11279;48.364;10.904;2023-04-07T03:38:02;11.73;;;6.17;;
22219;SDS011;11279;48.364;10.904;2023-04-07T03:39:02;10.40;;;6.10;;
22219;SDS011;11279;48.364;10.904;2023-04-07T03:40:03;10.47;;;6.10;;
22219;SDS011;11279;48.364;10.904;2023-04-07T03:41:04;11.67;;;6.70;;
22219;SDS011;11279;48.364;10.904;2023-04-07T03:42:04;10.87;;;6.60;;
22219;SDS011;11279;48.364;10.904;2023-04-07T03:43:05;12.40;;;6.73;;
22219;SDS011;11279;48.364;10.904;2023-04-07T03:44:11;10.25;;;5.88;;
22219;SDS011;11279;48.364;10.904;2023-04-07T03:45:11;11.60;;;6.67;;
22219;SDS011;11279;48.364;10.904;2023-04-07T03:46:12;11.43;;;6.17;;
22219;SDS011;11279;48.364;10.904;2023-04-07T03:47:12;12.77;;;6.07;;
22219;SDS011;11279;48.364;10.904;2023-04-07T03:48:13;12.33;;;6.70;;
22219;SDS011;11279;48.364;10.904;2023-04-07T03:49:13;9.87;;;6.00;;
22219;SDS011;11279;48.364;10.904;2023-04-07T03:50:13;12.67;;;6.67;;
22219;SDS011;11279;48.364;10.904;2023-04-07T03:51:14;11.97;;;7.20;;
22219;SDS011;11279;48.364;10.904;2023-04-07T03:52:15;11.63;;;6.30;;
22219;SDS011;11279;48.364;10.904;2023-04-07T03:53:15;12.47;;;6.23;;
22219;SDS011;11279;48.364;10.904;2023-04-07T03:54:16;9.73;;;5.87;;
22219;SDS011;11279;48.364;10.904;2023-04-07T03:55:16;10.83;;;6.13;;
22219;SDS011;11279;48.364;10.904;2023-04-07T03:56:17;12.40;;;6.53;;
22219;SDS011;11279;48.364;10.904;2023-04-07T03:57:17;13.40;;;7.70;;
22219;SDS011;11279;48.364;10.904;2023-04-07T03:58:17;11.77;;;6.60;;
22219;SDS011;11279;48.364;10.904;2023-04-07T03:59:18;10.30;;;6.27;;
22219;SDS011;11279;48.364;10.904;2023-04-07T04:00:18;12.93;;;7.10;;
22219;SDS011;11279;48.364;10.904;2023-04-07T04:01:19;11.90;;;6.70;;
22219;SDS011;11279;48.364;10.904;2023-04-07T04:02:19;12.90;;;7.03;;
22219;SDS011;11279;48.364;10.904;2023-04-07T04:03:20;11.90;;;7.23;;
22219;SDS011;11279;48.364;10.904;2023-04-07T04:04:20;13.87;;;7.37;;
22219;SDS011;11279;48.364;10.904;2023-04-07T04:05:21;14.03;;;7.80;;
22219;SDS011;11279;48.364;10.904;2023-04-07T04:06:21;11.87;;;6.97;;
22219;SDS011;11279;48.364;10.904;2023-04-07T04:07:21;13.33;;;6.73;;
22219;SDS011;11279;48.364;10.904;2023-04-07T04:08:22;16.20;;;7.10;;
22219;SDS011;11279;48.364;10.904;2023-04-07T04:09:23;12.30;;;6.83;;
22219;SDS011;11279;48.364;10.904;2023-04-07T04:10:23;11.93;;;6.30;;
22219;SDS011;11279;48.364;10.904;2023-04-07T04:11:23;11.37;;;6.50;;
22219;SDS011;11279;48.364;10.904;2023-04-07T04:12:24;12.40;;;6.57;;
22219;SDS011;11279;48.364;10.904;2023-04-07T04:13:24;11.80;;;6.90;;
22219;SDS011;11279;48.364;10.904;2023-04-07T04:14:25;11.63;;;6.23;;
22219;SDS011;11279;48.364;10.904;2023-04-07T04:15:25;11.60;;;6.67;;
22219;SDS011;11279;48.364;10.904;2023-04-07T04:16:26;13.33;;;6.97;;
22219;SDS011;11279;48.364;10.904;2023-04-07T04:17:26;10.50;;;6.03;;
22219;SDS011;11279;48.364;10.904;2023-04-07T04:18:27;11.93;;;6.87;;
22219;SDS011;11279;48.364;10.904;2023-04-07T04:19:27;12.93;;;7.33;;
22219;SDS011;11279;48.364;10.904;2023-04-07T04:20:28;12.17;;;6.30;;
22219;SDS011;11279;48.364;10.904;2023-04-07T04:21:28;11.13;;;6.67;;
22219;SDS011;11279;48.364;10.904;2023-04-07T04:22:29;13.67;;;6.53;;
22219;SDS011;11279;48.364;10.904;2023-04-07T04:23:29;12.67;;;6.80;;
22219;SDS011;11279;48.364;10.904;2023-04-07T04:24:30;12.17;;;6.67;;
22219;SDS011;11279;48.364;10.904;2023-04-07T04:25:30;12.33;;;6.77;;
22219;SDS011;11279;48.364;10.904;2023-04-07T04:26:31;12.97;;;7.00;;
22219;SDS011;11279;48.364;10.904;2023-04-07T04:27:31;12.03;;;6.70;;
22219;SDS011;11279;48.364;10.904;2023-04-07T04:28:31;10.13;;;5.97;;
22219;SDS011;11279;48.364;10.904;2023-04-07T04:29:32;11.10;;;6.60;;
22219;SDS011;11279;48.364;10.904;2023-04-07T04:30:32;12.03;;;6.20;;
22219;SDS011;11279;48.364;10.904;2023-04-07T04:31:33;11.13;;;6.43;;
22219;SDS011;11279;48.364;10.904;2023-04-07T04:32:33;13.17;;;6.50;;
22219;SDS011;11279;48.364;10.904;2023-04-07T04:33:34;13.80;;;7.33;;
22219;SDS011;11279;48.364;10.904;2023-04-07T04:34:35;12.37;;;7.43;;
22219;SDS011;11279;48.364;10.904;2023-04-07T04:35:35;13.70;;;6.13;;
22219;SDS011;11279;48.364;10.904;2023-04-07T04:36:36;13.93;;;6.83;;
22219;SDS011;11279;48.364;10.904;2023-04-07T04:37:36;11.87;;;6.77;;
22219;SDS011;11279;48.364;10.904;2023-04-07T04:38:36;13.53;;;6.97;;
22219;SDS011;11279;48.364;10.904;2023-04-07T04:39:37;12.80;;;6.90;;
22219;SDS011;11279;48.364;10.904;2023-04-07T04:40:38;12.60;;;6.90;;
22219;SDS011;11279;48.364;10.904;2023-04-07T04:41:38;10.90;;;6.80;;
22219;SDS011;11279;48.364;10.904;2023-04-07T04:42:38;15.80;;;7.33;;
22219;SDS011;11279;48.364;10.904;2023-04-07T04:43:39;12.70;;;6.63;;
22219;SDS011;11279;48.364;10.904;2023-04-07T04:44:40;13.57;;;7.27;;
22219;SDS011;11279;48.364;10.904;2023-04-07T04:45:40;12.80;;;7.07;;
22219;SDS011;11279;48.364;10.904;2023-04-07T04:46:41;12.33;;;6.83;;
22219;SDS011;11279;48.364;10.904;2023-04-07T04:47:41;13.27;;;7.27;;
22219;SDS011;11279;48.364;10.904;2023-04-07T04:48:42;12.25;;;7.28;;
22219;SDS011;11279;48.364;10.904;2023-04-07T04:49:43;11.33;;;6.97;;
22219;SDS011;11279;48.364;10.904;2023-04-07T04:50:43;13.33;;;7.33;;
22219;SDS011;11279;48.364;10.904;2023-04-07T04:51:44;13.83;;;7.50;;
22219;SDS011;11279;48.364;10.904;2023-04-07T04:52:45;13.97;;;6.67;;
22219;SDS011;11279;48.364;10.904;2023-04-07T04:53:45;11.70;;;6.93;;
22219;SDS011;11279;48.364;10.904;2023-04-07T04:54:46;13.57;;;7.13;;
22219;SDS011;11279;48.364;10.904;2023-04-07T04:55:47;15.47;;;7.50;;
22219;SDS011;11279;48.364;10.904;2023-04-07T04:56:51;13.15;;;6.72;;
22219;SDS011;11279;48.364;10.904;2023-04-07T04:57:51;13.67;;;7.07;;
22219;SDS011;11279;48.364;10.904;2023-04-07T04:58:51;15.40;;;7.33;;
22219;SDS011;11279;48.364;10.904;2023-04-07T04:59:52;13.80;;;8.13;;
22219;SDS011;11279;48.364;10.904;2023-04-07T05:00:53;11.57;;;6.47;;
22219;SDS011;11279;48.364;10.904;2023-04-07T05:01:57;14.30;;;7.43;;
22219;SDS011;11279;48.364;10.904;2023-04-07T05:02:57;11.93;;;7.50;;
22219;SDS011;11279;48.364;10.904;2023-04-07T05:03:57;14.03;;;7.40;;
22219;SDS011;11279;48.364;10.904;2023-04-07T05:04:58;15.53;;;7.30;;
22219;SDS011;11279;48.364;10.904;2023-04-07T05:05:58;14.90;;;7.87;;
22219;SDS011;11279;48.364;10.904;2023-04-07T05:06:59;12.60;;;7.47;;
22219;SDS011;11279;48.364;10.904;2023-04-07T05:07:59;14.00;;;7.33;;
22219;SDS011;11279;48.364;10.904;2023-04-07T05:09:00;12.57;;;7.07;;
22219;SDS011;11279;48.364;10.904;2023-04-07T05:10:00;13.83;;;6.73;;
22219;SDS011;11279;48.364;10.904;2023-04-07T05:11:01;12.90;;;7.13;;
22219;SDS011;11279;48.364;10.904;2023-04-07T05:12:01;11.43;;;6.80;;
22219;SDS011;11279;48.364;10.904;2023-04-07T05:13:02;11.23;;;7.20;;
22219;SDS011;11279;48.364;10.904;2023-04-07T05:14:02;14.87;;;7.30;;
22219;SDS011;11279;48.364;10.904;2023-04-07T05:15:03;12.20;;;6.80;;
22219;SDS011;11279;48.364;10.904;2023-04-07T05:16:04;13.43;;;7.27;;
22219;SDS011;11279;48.364;10.904;2023-04-07T05:17:04;12.55;;;7.05;;
22219;SDS011;11279;48.364;10.904;2023-04-07T05:18:05;14.17;;;7.53;;
22219;SDS011;11279;48.364;10.904;2023-04-07T05:19:05;13.63;;;7.77;;
22219;SDS011;11279;48.364;10.904;2023-04-07T05:20:07;12.17;;;6.77;;
22219;SDS011;11279;48.364;10.904;2023-04-07T05:21:08;13.60;;;7.63;;
22219;SDS011;11279;48.364;10.904;2023-04-07T05:22:09;16.07;;;7.73;;
22219;SDS011;11279;48.364;10.904;2023-04-07T05:23:09;13.80;;;8.03;;
22219;SDS011;11279;48.364;10.904;2023-04-07T05:24:10;13.13;;;7.33;;
22219;SDS011;11279;48.364;10.904;2023-04-07T05:25:11;13.30;;;7.20;;
22219;SDS011;11279;48.364;10.904;2023-04-07T05:26:11;12.97;;;7.30;;
22219;SDS011;11279;48.364;10.904;2023-04-07T05:27:12;13.03;;;7.77;;
22219;SDS011;11279;48.364;10.904;2023-04-07T05:28:12;14.27;;;7.80;;
22219;SDS011;11279;48.364;10.904;2023-04-07T05:29:12;14.80;;;7.57;;
22219;SDS011;11279;48.364;10.904;2023-04-07T05:30:13;13.40;;;6.97;;
22219;SDS011;11279;48.364;10.904;2023-04-07T05:31:14;14.23;;;7.85;;
22219;SDS011;11279;48.364;10.904;2023-04-07T05:32:14;13.30;;;7.63;;
22219;SDS011;11279;48.364;10.904;2023-04-07T05:33:16;11.77;;;7.30;;
22219;SDS011;11279;48.364;10.904;2023-04-07T05:34:16;14.47;;;7.33;;
22219;SDS011;11279;48.364;10.904;2023-04-07T05:35:17;13.67;;;6.97;;
22219;SDS011;11279;48.364;10.904;2023-04-07T05:36:17;13.33;;;7.83;;
22219;SDS011;11279;48.364;10.904;2023-04-07T05:37:18;13.67;;;7.97;;
22219;SDS011;11279;48.364;10.904;2023-04-07T05:38:18;14.87;;;8.33;;
22219;SDS011;11279;48.364;10.904;2023-04-07T05:39:19;14.50;;;8.43;;
22219;SDS011;11279;48.364;10.904;2023-04-07T05:40:20;15.43;;;8.43;;
22219;SDS011;11279;48.364;10.904;2023-04-07T05:41:20;16.27;;;9.17;;
22219;SDS011;11279;48.364;10.904;2023-04-07T05:42:20;16.20;;;8.63;;
22219;SDS011;11279;48.364;10.904;2023-04-07T05:43:21;14.43;;;8.37;;
22219;SDS011;11279;48.364;10.904;2023-04-07T05:44:21;14.63;;;8.50;;
22219;SDS011;11279;48.364;10.904;2023-04-07T05:45:22;13.30;;;7.13;;
22219;SDS011;11279;48.364;10.904;2023-04-07T05:46:22;14.70;;;7.20;;
22219;SDS011;11279;48.364;10.904;2023-04-07T05:47:23;12.83;;;7.17;;
22219;SDS011;11279;48.364;10.904;2023-04-07T05:48:23;12.87;;;7.30;;
22219;SDS011;11279;48.364;10.904;2023-04-07T05:49:24;13.10;;;7.60;;
22219;SDS011;11279;48.364;10.904;2023-04-07T05:50:24;14.17;;;7.53;;
22219;SDS011;11279;48.364;10.904;2023-04-07T05:51:25;14.77;;;7.33;;
22219;SDS011;11279;48.364;10.904;2023-04-07T05:52:25;12.77;;;7.87;;
22219;SDS011;11279;48.364;10.904;2023-04-07T05:53:26;13.93;;;7.50;;
22219;SDS011;11279;48.364;10.904;2023-04-07T05:54:26;11.60;;;7.10;;
22219;SDS011;11279;48.364;10.904;2023-04-07T05:55:27;15.27;;;7.57;;
22219;SDS011;11279;48.364;10.904;2023-04-07T05:56:27;13.00;;;7.17;;
22219;SDS011;11279;48.364;10.904;2023-04-07T05:57:28;13.77;;;7.90;;
22219;SDS011;11279;48.364;10.904;2023-04-07T05:58:28;13.80;;;7.53;;
22219;SDS011;11279;48.364;10.904;2023-04-07T05:59:30;15.93;;;7.68;;
22219;SDS011;11279;48.364;10.904;2023-04-07T06:00:31;12.73;;;7.80;;
22219;SDS011;11279;48.364;10.904;2023-04-07T06:01:31;13.43;;;7.43;;
22219;SDS011;11279;48.364;10.904;2023-04-07T06:02:31;11.87;;;7.27;;
22219;SDS011;11279;48.364;10.904;2023-04-07T06:03:32;14.17;;;7.57;;
22219;SDS011;11279;48.364;10.904;2023-04-07T06:04:32;12.63;;;7.00;;
22219;SDS011;11279;48.364;10.904;2023-04-07T06:05:34;11.77;;;6.65;;
22219;SDS011;11279;48.364;10.904;2023-04-07T06:06:34;11.83;;;6.73;;